sensor_id;sensor_type;location;lat;lon;timestamp;P1;durP1;ratioP1;P2;durP2;ratioP2
18776;SDS011;9517;51.174;4.160;2023-04-07T00:01:51;55.77;;;17.83;;
18776;SDS011;9517;51.174;4.160;2023-04-07T00:04:18;47.93;;;17.73;;
18776;SDS011;9517;51.174;4.160;2023-04-07T00:06:46;56.47;;;18.27;;
18776;SDS011;9517;51.174;4.160;2023-04-07T00:09:14;48.33;;;17.47;;
18776;SDS011;9517;51.174;4.160;2023-04-07T00:11:41;56.27;;;17.47;;
18776;SDS011;9517;51.174;4.160;2023-04-07T00:14:08;40.97;;;16.27;;
18776;SDS011;9517;51.174;4.160;2023-04-07T00:16:35;43.83;;;15.73;;
18776;SDS011;9517;51.174;4.160;2023-04-07T00:19:02;41.37;;;16.30;;
18776;SDS011;9517;51.174;4.160;2023-04-07T00:21:29;38.40;;;14.00;;
18776;SDS011;9517;51.174;4.160;2023-04-07T00:23:58;49.83;;;14.43;;
18776;SDS011;9517;51.174;4.160;2023-04-07T00:26:25;42.53;;;14.40;;
18776;SDS011;9517;51.174;4.160;2023-04-07T00:28:55;41.30;;;13.63;;
18776;SDS011;9517;51.174;4.160;2023-04-07T00:31:22;36.07;;;14.10;;
18776;SDS011;9517;51.174;4.160;2023-04-07T00:33:50;36.53;;;14.30;;
18776;SDS011;9517;51.174;4.160;2023-04-07T00:36:17;30.97;;;14.07;;
18776;SDS011;9517;51.174;4.160;2023-04-07T00:38:44;33.47;;;14.00;;
18776;SDS011;9517;51.174;4.160;2023-04-07T00:41:12;33.43;;;14.07;;
18776;SDS011;9517;51.174;4.160;2023-04-07T00:43:39;35.80;;;13.67;;
18776;SDS011;9517;51.174;4.160;2023-04-07T00:46:07;30.93;;;14.10;;
18776;SDS011;9517;51.174;4.160;2023-04-07T00:48:34;35.53;;;15.00;;
18776;SDS011;9517;51.174;4.160;2023-04-07T00:51:02;34.70;;;13.70;;
18776;SDS011;9517;51.174;4.160;2023-04-07T00:53:30;36.30;;;15.40;;
18776;SDS011;9517;51.174;4.160;2023-04-07T00:55:57;39.97;;;16.20;;
18776;SDS011;9517;51.174;4.160;2023-04-07T00:58:26;32.10;;;14.77;;
18776;SDS011;9517;51.174;4.160;2023-04-07T01:00:54;42.00;;;15.87;;
18776;SDS011;9517;51.174;4.160;2023-04-07T01:03:28;39.20;;;15.40;;
18776;SDS011;9517;51.174;4.160;2023-04-07T01:05:59;35.50;;;15.07;;
18776;SDS011;9517;51.174;4.160;2023-04-07T01:08:29;32.23;;;14.90;;
18776;SDS011;9517;51.174;4.160;2023-04-07T01:10:59;31.93;;;15.77;;
18776;SDS011;9517;51.174;4.160;2023-04-07T01:13:35;33.23;;;15.03;;
18776;SDS011;9517;51.174;4.160;2023-04-07T01:16:10;33.90;;;14.80;;
18776;SDS011;9517;51.174;4.160;2023-04-07T01:18:38;30.33;;;14.00;;
18776;SDS011;9517;51.174;4.160;2023-04-07T01:21:06;33.03;;;14.27;;
18776;SDS011;9517;51.174;4.160;2023-04-07T01:23:46;38.97;;;14.20;;
18776;SDS011;9517;51.174;4.160;2023-04-07T01:26:22;31.20;;;13.17;;
18776;SDS011;9517;51.174;4.160;2023-04-07T01:31:55;30.53;;;13.17;;
18776;SDS011;9517;51.174;4.160;2023-04-07T01:34:25;29.57;;;13.97;;
18776;SDS011;9517;51.174;4.160;2023-04-07T01:36:54;27.37;;;13.20;;
18776;SDS011;9517;51.174;4.160;2023-04-07T01:39:25;27.27;;;12.63;;
18776;SDS011;9517;51.174;4.160;2023-04-07T01:41:53;31.43;;;13.13;;
18776;SDS011;9517;51.174;4.160;2023-04-07T01:44:21;29.27;;;13.77;;
18776;SDS011;9517;51.174;4.160;2023-04-07T01:46:50;32.10;;;13.20;;
18776;SDS011;9517;51.174;4.160;2023-04-07T01:49:17;31.63;;;13.70;;
18776;SDS011;9517;51.174;4.160;2023-04-07T01:51:45;30.00;;;14.60;;
18776;SDS011;9517;51.174;4.160;2023-04-07T01:54:14;33.00;;;14.57;;
18776;SDS011;9517;51.174;4.160;2023-04-07T01:56:42;33.83;;;15.00;;
18776;SDS011;9517;51.174;4.160;2023-04-07T01:59:09;33.40;;;14.47;;
18776;SDS011;9517;51.174;4.160;2023-04-07T02:01:36;28.17;;;13.87;;
18776;SDS011;9517;51.174;4.160;2023-04-07T02:04:06;36.57;;;15.30;;
18776;SDS011;9517;51.174;4.160;2023-04-07T02:06:40;34.33;;;15.13;;
18776;SDS011;9517;51.174;4.160;2023-04-07T02:09:12;32.77;;;15.13;;
18776;SDS011;9517;51.174;4.160;2023-04-07T02:11:42;32.33;;;13.63;;
18776;SDS011;9517;51.174;4.160;2023-04-07T02:14:10;32.10;;;13.97;;
18776;SDS011;9517;51.174;4.160;2023-04-07T02:16:40;32.67;;;15.07;;
18776;SDS011;9517;51.174;4.160;2023-04-07T02:19:09;25.70;;;13.97;;
18776;SDS011;9517;51.174;4.160;2023-04-07T02:21:37;39.17;;;14.30;;
18776;SDS011;9517;51.174;4.160;2023-04-07T02:24:06;32.63;;;15.20;;
18776;SDS011;9517;51.174;4.160;2023-04-07T02:26:33;32.20;;;14.63;;
18776;SDS011;9517;51.174;4.160;2023-04-07T02:29:01;29.83;;;14.67;;
18776;SDS011;9517;51.174;4.160;2023-04-07T02:31:28;32.70;;;15.27;;
18776;SDS011;9517;51.174;4.160;2023-04-07T02:33:55;35.77;;;15.27;;
18776;SDS011;9517;51.174;4.160;2023-04-07T02:36:24;37.80;;;16.23;;
18776;SDS011;9517;51.174;4.160;2023-04-07T02:38:51;37.63;;;15.97;;
18776;SDS011;9517;51.174;4.160;2023-04-07T02:41:18;37.20;;;17.07;;
18776;SDS011;9517;51.174;4.160;2023-04-07T02:43:46;35.90;;;16.40;;
18776;SDS011;9517;51.174;4.160;2023-04-07T02:46:13;34.60;;;16.77;;
18776;SDS011;9517;51.174;4.160;2023-04-07T02:48:40;40.27;;;18.77;;
18776;SDS011;9517;51.174;4.160;2023-04-07T02:51:07;38.23;;;17.13;;
18776;SDS011;9517;51.174;4.160;2023-04-07T02:53:36;36.93;;;17.23;;
18776;SDS011;9517;51.174;4.160;2023-04-07T02:56:03;39.33;;;18.90;;
18776;SDS011;9517;51.174;4.160;2023-04-07T02:58:30;36.97;;;17.07;;
18776;SDS011;9517;51.174;4.160;2023-04-07T03:00:58;35.40;;;17.57;;
18776;SDS011;9517;51.174;4.160;2023-04-07T03:03:25;34.53;;;16.90;;
18776;SDS011;9517;51.174;4.160;2023-04-07T03:05:52;37.50;;;18.43;;
18776;SDS011;9517;51.174;4.160;2023-04-07T03:08:19;41.47;;;18.93;;
18776;SDS011;9517;51.174;4.160;2023-04-07T03:10:48;38.67;;;19.70;;
18776;SDS011;9517;51.174;4.160;2023-04-07T03:13:15;40.53;;;18.33;;
18776;SDS011;9517;51.174;4.160;2023-04-07T03:15:43;41.37;;;18.47;;
18776;SDS011;9517;51.174;4.160;2023-04-07T03:18:11;41.77;;;18.13;;
18776;SDS011;9517;51.174;4.160;2023-04-07T03:20:38;45.07;;;18.73;;
18776;SDS011;9517;51.174;4.160;2023-04-07T03:23:06;37.03;;;17.57;;
18776;SDS011;9517;51.174;4.160;2023-04-07T03:25:34;46.00;;;19.57;;
18776;SDS011;9517;51.174;4.160;2023-04-07T03:28:02;40.90;;;19.17;;
18776;SDS011;9517;51.174;4.160;2023-04-07T03:30:30;39.53;;;18.37;;
18776;SDS011;9517;51.174;4.160;2023-04-07T03:32:57;46.50;;;19.67;;
18776;SDS011;9517;51.174;4.160;2023-04-07T03:35:24;42.87;;;20.13;;
18776;SDS011;9517;51.174;4.160;2023-04-07T03:37:51;45.20;;;19.50;;
18776;SDS011;9517;51.174;4.160;2023-04-07T03:40:18;42.83;;;19.87;;
18776;SDS011;9517;51.174;4.160;2023-04-07T03:42:46;43.17;;;19.23;;
18776;SDS011;9517;51.174;4.160;2023-04-07T03:45:15;51.30;;;21.93;;
18776;SDS011;9517;51.174;4.160;2023-04-07T03:47:42;52.47;;;22.57;;
18776;SDS011;9517;51.174;4.160;2023-04-07T03:50:09;55.17;;;22.50;;
18776;SDS011;9517;51.174;4.160;2023-04-07T03:52:36;51.57;;;23.33;;
18776;SDS011;9517;51.174;4.160;2023-04-07T03:55:04;53.40;;;23.67;;
18776;SDS011;9517;51.174;4.160;2023-04-07T03:57:32;50.93;;;23.07;;
18776;SDS011;9517;51.174;4.160;2023-04-07T03:59:59;59.70;;;24.50;;
18776;SDS011;9517;51.174;4.160;2023-04-07T04:02:28;61.47;;;23.67;;
18776;SDS011;9517;51.174;4.160;2023-04-07T04:04:55;61.80;;;24.47;;
18776;SDS011;9517;51.174;4.160;2023-04-07T04:07:22;62.63;;;24.57;;
18776;SDS011;9517;51.174;4.160;2023-04-07T04:09:50;61.70;;;24.37;;
18776;SDS011;9517;51.174;4.160;2023-04-07T04:12:17;62.90;;;25.87;;
18776;SDS011;9517;51.174;4.160;2023-04-07T04:14:45;66.30;;;25.60;;
18776;SDS011;9517;51.174;4.160;2023-04-07T04:17:12;71.80;;;27.33;;
18776;SDS011;9517;51.174;4.160;2023-04-07T04:19:41;62.43;;;26.17;;
18776;SDS011;9517;51.174;4.160;2023-04-07T04:22:08;71.00;;;26.20;;
18776;SDS011;9517;51.174;4.160;2023-04-07T04:24:35;63.20;;;26.20;;
18776;SDS011;9517;51.174;4.160;2023-04-07T04:27:02;77.00;;;24.60;;
18776;SDS011;9517;51.174;4.160;2023-04-07T04:29:29;76.57;;;27.60;;
18776;SDS011;9517;51.174;4.160;2023-04-07T04:31:57;81.70;;;28.93;;
18776;SDS011;9517;51.174;4.160;2023-04-07T04:34:24;84.97;;;28.50;;
18776;SDS011;9517;51.174;4.160;2023-04-07T04:36:53;73.60;;;28.67;;
18776;SDS011;9517;51.174;4.160;2023-04-07T04:39:20;77.97;;;29.60;;
18776;SDS011;9517;51.174;4.160;2023-04-07T04:41:47;79.50;;;30.90;;
18776;SDS011;9517;51.174;4.160;2023-04-07T04:44:14;82.97;;;30.00;;
18776;SDS011;9517;51.174;4.160;2023-04-07T04:46:41;87.60;;;31.13;;
18776;SDS011;9517;51.174;4.160;2023-04-07T04:49:08;92.73;;;30.87;;
18776;SDS011;9517;51.174;4.160;2023-04-07T04:51:36;91.10;;;31.87;;
18776;SDS011;9517;51.174;4.160;2023-04-07T04:54:04;102.20;;;32.67;;
18776;SDS011;9517;51.174;4.160;2023-04-07T04:56:32;92.77;;;32.03;;
18776;SDS011;9517;51.174;4.160;2023-04-07T04:58:59;88.87;;;32.13;;
18776;SDS011;9517;51.174;4.160;2023-04-07T05:01:26;88.37;;;32.77;;
18776;SDS011;9517;51.174;4.160;2023-04-07T05:03:54;90.43;;;31.80;;
18776;SDS011;9517;51.174;4.160;2023-04-07T05:06:21;93.07;;;33.23;;
18776;SDS011;9517;51.174;4.160;2023-04-07T05:08:48;92.37;;;31.27;;
18776;SDS011;9517;51.174;4.160;2023-04-07T05:11:16;96.40;;;31.93;;
18776;SDS011;9517;51.174;4.160;2023-04-07T05:13:44;97.17;;;32.03;;
18776;SDS011;9517;51.174;4.160;2023-04-07T05:16:11;88.80;;;31.00;;
18776;SDS011;9517;51.174;4.160;2023-04-07T05:18:38;85.23;;;29.23;;
18776;SDS011;9517;51.174;4.160;2023-04-07T05:21:05;92.20;;;31.50;;
18776;SDS011;9517;51.174;4.160;2023-04-07T05:23:32;107.73;;;33.83;;
18776;SDS011;9517;51.174;4.160;2023-04-07T05:26:00;96.27;;;31.57;;
18776;SDS011;9517;51.174;4.160;2023-04-07T05:28:28;90.77;;;32.13;;
18776;SDS011;9517;51.174;4.160;2023-04-07T05:30:56;92.30;;;32.90;;
18776;SDS011;9517;51.174;4.160;2023-04-07T05:33:23;94.53;;;32.13;;
18776;SDS011;9517;51.174;4.160;2023-04-07T05:35:50;97.63;;;32.37;;
18776;SDS011;9517;51.174;4.160;2023-04-07T05:38:17;101.37;;;31.30;;
18776;SDS011;9517;51.174;4.160;2023-04-07T05:40:45;99.37;;;33.23;;
18776;SDS011;9517;51.174;4.160;2023-04-07T05:43:12;98.13;;;32.97;;
18776;SDS011;9517;51.174;4.160;2023-04-07T05:45:41;102.43;;;31.27;;
18776;SDS011;9517;51.174;4.160;2023-04-07T05:48:08;96.57;;;32.13;;
18776;SDS011;9517;51.174;4.160;2023-04-07T05:50:36;93.73;;;32.13;;
18776;SDS011;9517;51.174;4.160;2023-04-07T05:53:03;95.20;;;32.40;;
18776;SDS011;9517;51.174;4.160;2023-04-07T05:55:30;97.20;;;31.20;;
18776;SDS011;9517;51.174;4.160;2023-04-07T05:57:58;89.13;;;30.50;;
18776;SDS011;9517;51.174;4.160;2023-04-07T06:00:25;85.87;;;29.70;;
18776;SDS011;9517;51.174;4.160;2023-04-07T06:02:54;85.50;;;29.70;;
18776;SDS011;9517;51.174;4.160;2023-04-07T06:05:21;88.20;;;29.73;;
18776;SDS011;9517;51.174;4.160;2023-04-07T06:07:48;82.47;;;29.10;;
18776;SDS011;9517;51.174;4.160;2023-04-07T06:10:16;80.57;;;28.37;;
18776;SDS011;9517;51.174;4.160;2023-04-07T06:12:43;75.63;;;28.50;;
18776;SDS011;9517;51.174;4.160;2023-04-07T06:15:10;79.33;;;28.80;;
18776;SDS011;9517;51.174;4.160;2023-04-07T06:17:38;69.57;;;26.13;;
18776;SDS011;9517;51.174;4.160;2023-04-07T06:20:07;74.47;;;26.07;;
18776;SDS011;9517;51.174;4.160;2023-04-07T06:22:34;60.80;;;22.40;;
18776;SDS011;9517;51.174;4.160;2023-04-07T06:25:01;56.90;;;20.63;;
18776;SDS011;9517;51.174;4.160;2023-04-07T06:27:28;53.70;;;18.87;;
18776;SDS011;9517;51.174;4.160;2023-04-07T06:29:57;48.10;;;18.80;;
18776;SDS011;9517;51.174;4.160;2023-04-07T06:32:24;50.33;;;19.20;;
18776;SDS011;9517;51.174;4.160;2023-04-07T06:34:52;43.97;;;16.90;;
18776;SDS011;9517;51.174;4.160;2023-04-07T06:37:21;37.53;;;14.43;;
18776;SDS011;9517;51.174;4.160;2023-04-07T06:39:50;31.33;;;13.10;;
18776;SDS011;9517;51.174;4.160;2023-04-07T06:42:17;27.53;;;13.63;;
18776;SDS011;9517;51.174;4.160;2023-04-07T06:44:44;30.37;;;12.10;;
18776;SDS011;9517;51.174;4.160;2023-04-07T06:47:11;36.40;;;13.60;;
18776;SDS011;9517;51.174;4.160;2023-04-07T06:49:38;27.07;;;11.10;;
18776;SDS011;9517;51.174;4.160;2023-04-07T06:52:05;20.77;;;10.10;;
18776;SDS011;9517;51.174;4.160;2023-04-07T06:54:34;22.53;;;10.00;;
18776;SDS011;9517;51.174;4.160;2023-04-07T06:57:01;22.23;;;9.60;;
18776;SDS011;9517;51.174;4.160;2023-04-07T06:59:28;24.73;;;10.33;;
18776;SDS011;9517;51.174;4.160;2023-04-07T07:01:55;24.70;;;10.17;;
18776;SDS011;9517;51.174;4.160;2023-04-07T07:04:22;27.57;;;10.63;;
18776;SDS011;9517;51.174;4.160;2023-04-07T07:06:50;23.07;;;9.50;;
18776;SDS011;9517;51.174;4.160;2023-04-07T07:09:17;25.83;;;10.27;;
18776;SDS011;9517;51.174;4.160;2023-04-07T07:11:46;21.67;;;9.80;;
18776;SDS011;9517;51.174;4.160;2023-04-07T07:14:13;21.13;;;9.13;;
18776;SDS011;9517;51.174;4.160;2023-04-07T07:16:40;17.63;;;8.10;;
18776;SDS011;9517;51.174;4.160;2023-04-07T07:19:07;16.37;;;8.27;;
18776;SDS011;9517;51.174;4.160;2023-04-07T07:21:35;24.67;;;8.87;;
18776;SDS011;9517;51.174;4.160;2023-04-07T07:24:02;26.17;;;8.83;;
18776;SDS011;9517;51.174;4.160;2023-04-07T07:26:29;27.17;;;10.07;;
18776;SDS011;9517;51.174;4.160;2023-04-07T07:28:58;22.87;;;7.77;;
18776;SDS011;9517;51.174;4.160;2023-04-07T07:31:25;19.03;;;8.03;;
18776;SDS011;9517;51.174;4.160;2023-04-07T07:33:52;18.67;;;7.67;;
18776;SDS011;9517;51.174;4.160;2023-04-07T07:36:20;16.83;;;6.77;;
18776;SDS011;9517;51.174;4.160;2023-04-07T07:38:48;16.33;;;7.17;;
18776;SDS011;9517;51.174;4.160;2023-04-07T07:41:15;15.27;;;6.07;;
18776;SDS011;9517;51.174;4.160;2023-04-07T07:43:42;15.07;;;6.43;;
18776;SDS011;9517;51.174;4.160;2023-04-07T07:46:11;15.60;;;5.70;;
18776;SDS011;9517;51.174;4.160;2023-04-07T07:48:38;11.83;;;5.30;;
18776;SDS011;9517;51.174;4.160;2023-04-07T07:51:05;14.97;;;5.47;;
18776;SDS011;9517;51.174;4.160;2023-04-07T07:53:32;16.10;;;5.17;;
18776;SDS011;9517;51.174;4.160;2023-04-07T07:55:59;15.53;;;5.70;;
18776;SDS011;9517;51.174;4.160;2023-04-07T07:58:26;19.10;;;5.90;;
18776;SDS011;9517;51.174;4.160;2023-04-07T08:00:54;14.40;;;5.63;;
18776;SDS011;9517;51.174;4.160;2023-04-07T08:03:22;11.30;;;4.90;;
18776;SDS011;9517;51.174;4.160;2023-04-07T08:05:49;22.33;;;5.47;;
18776;SDS011;9517;51.174;4.160;2023-04-07T08:08:16;15.53;;;4.33;;
18776;SDS011;9517;51.174;4.160;2023-04-07T08:10:44;17.03;;;4.40;;
18776;SDS011;9517;51.174;4.160;2023-04-07T08:13:11;12.07;;;4.67;;
18776;SDS011;9517;51.174;4.160;2023-04-07T08:15:38;13.73;;;3.90;;
18776;SDS011;9517;51.174;4.160;2023-04-07T08:18:05;12.63;;;3.73;;
18776;SDS011;9517;51.174;4.160;2023-04-07T08:20:34;13.27;;;4.07;;
18776;SDS011;9517;51.174;4.160;2023-04-07T08:23:02;12.97;;;3.40;;
18776;SDS011;9517;51.174;4.160;2023-04-07T08:25:29;9.93;;;3.13;;
18776;SDS011;9517;51.174;4.160;2023-04-07T08:27:56;12.17;;;2.87;;
18776;SDS011;9517;51.174;4.160;2023-04-07T08:30:24;12.67;;;2.97;;
18776;SDS011;9517;51.174;4.160;2023-04-07T08:32:51;14.83;;;2.90;;
18776;SDS011;9517;51.174;4.160;2023-04-07T08:35:18;15.97;;;3.23;;
18776;SDS011;9517;51.174;4.160;2023-04-07T08:37:46;13.00;;;3.93;;
18776;SDS011;9517;51.174;4.160;2023-04-07T08:40:14;14.27;;;3.40;;
18776;SDS011;9517;51.174;4.160;2023-04-07T08:42:44;12.73;;;3.07;;
18776;SDS011;9517;51.174;4.160;2023-04-07T08:45:13;16.60;;;3.27;;
18776;SDS011;9517;51.174;4.160;2023-04-07T08:47:42;12.13;;;3.40;;
18776;SDS011;9517;51.174;4.160;2023-04-07T08:50:11;13.10;;;2.63;;
18776;SDS011;9517;51.174;4.160;2023-04-07T08:52:40;9.87;;;2.30;;
18776;SDS011;9517;51.174;4.160;2023-04-07T08:55:12;15.77;;;2.80;;
18776;SDS011;9517;51.174;4.160;2023-04-07T08:57:40;18.13;;;2.80;;
18776;SDS011;9517;51.174;4.160;2023-04-07T09:00:08;12.93;;;2.20;;
18776;SDS011;9517;51.174;4.160;2023-04-07T09:02:36;13.47;;;2.77;;
18776;SDS011;9517;51.174;4.160;2023-04-07T09:05:05;11.60;;;2.40;;
18776;SDS011;9517;51.174;4.160;2023-04-07T09:07:34;14.80;;;3.30;;
18776;SDS011;9517;51.174;4.160;2023-04-07T09:10:02;14.40;;;2.70;;
18776;SDS011;9517;51.174;4.160;2023-04-07T09:12:31;9.53;;;2.47;;
18776;SDS011;9517;51.174;4.160;2023-04-07T09:14:59;15.47;;;2.80;;
18776;SDS011;9517;51.174;4.160;2023-04-07T09:17:26;16.97;;;3.47;;
18776;SDS011;9517;51.174;4.160;2023-04-07T09:19:55;18.83;;;3.20;;
18776;SDS011;9517;51.174;4.160;2023-04-07T09:22:35;15.20;;;3.67;;
18776;SDS011;9517;51.174;4.160;2023-04-07T09:25:11;17.37;;;3.27;;
18776;SDS011;9517;51.174;4.160;2023-04-07T09:27:40;15.77;;;2.97;;
18776;SDS011;9517;51.174;4.160;2023-04-07T09:30:23;19.97;;;3.30;;
18776;SDS011;9517;51.174;4.160;2023-04-07T09:32:51;12.47;;;3.30;;
18776;SDS011;9517;51.174;4.160;2023-04-07T09:35:18;16.90;;;3.20;;
18776;SDS011;9517;51.174;4.160;2023-04-07T09:37:59;23.20;;;4.33;;
18776;SDS011;9517;51.174;4.160;2023-04-07T09:40:28;14.93;;;3.80;;
18776;SDS011;9517;51.174;4.160;2023-04-07T09:42:57;17.33;;;3.30;;
18776;SDS011;9517;51.174;4.160;2023-04-07T09:45:24;16.67;;;3.70;;
18776;SDS011;9517;51.174;4.160;2023-04-07T09:47:51;14.23;;;3.30;;
18776;SDS011;9517;51.174;4.160;2023-04-07T09:50:29;12.43;;;3.47;;
18776;SDS011;9517;51.174;4.160;2023-04-07T09:52:59;14.53;;;2.90;;
18776;SDS011;9517;51.174;4.160;2023-04-07T09:55:27;18.40;;;2.77;;
18776;SDS011;9517;51.174;4.160;2023-04-07T09:57:56;16.83;;;2.43;;
18776;SDS011;9517;51.174;4.160;2023-04-07T10:00:24;11.03;;;2.17;;
18776;SDS011;9517;51.174;4.160;2023-04-07T10:02:51;15.20;;;3.00;;
18776;SDS011;9517;51.174;4.160;2023-04-07T10:05:18;12.60;;;3.33;;
18776;SDS011;9517;51.174;4.160;2023-04-07T10:07:46;13.50;;;2.70;;
18776;SDS011;9517;51.174;4.160;2023-04-07T10:10:14;13.43;;;2.97;;
18776;SDS011;9517;51.174;4.160;2023-04-07T10:12:41;14.77;;;3.10;;
18776;SDS011;9517;51.174;4.160;2023-04-07T10:15:12;12.83;;;2.77;;
18776;SDS011;9517;51.174;4.160;2023-04-07T10:17:40;14.83;;;2.43;;
18776;SDS011;9517;51.174;4.160;2023-04-07T10:20:13;13.10;;;2.40;;
18776;SDS011;9517;51.174;4.160;2023-04-07T10:22:44;12.43;;;2.83;;
18776;SDS011;9517;51.174;4.160;2023-04-07T10:25:13;11.60;;;2.10;;
18776;SDS011;9517;51.174;4.160;2023-04-07T10:27:44;10.00;;;2.20;;
18776;SDS011;9517;51.174;4.160;2023-04-07T10:30:19;12.20;;;2.80;;
18776;SDS011;9517;51.174;4.160;2023-04-07T10:32:49;13.20;;;2.30;;
18776;SDS011;9517;51.174;4.160;2023-04-07T10:35:18;13.07;;;2.20;;
18776;SDS011;9517;51.174;4.160;2023-04-07T10:40:38;10.00;;;2.13;;
18776;SDS011;9517;51.174;4.160;2023-04-07T10:43:05;12.20;;;2.67;;
18776;SDS011;9517;51.174;4.160;2023-04-07T10:45:55;11.67;;;2.43;;
18776;SDS011;9517;51.174;4.160;2023-04-07T10:48:25;18.67;;;2.50;;
18776;SDS011;9517;51.174;4.160;2023-04-07T10:51:18;20.73;;;2.90;;
18776;SDS011;9517;51.174;4.160;2023-04-07T10:59:37;10.67;;;2.93;;
18776;SDS011;9517;51.174;4.160;2023-04-07T11:05:06;16.57;;;3.20;;
18776;SDS011;9517;51.174;4.160;2023-04-07T11:07:46;14.57;;;3.83;;
18776;SDS011;9517;51.174;4.160;2023-04-07T11:10:19;17.43;;;3.43;;
18776;SDS011;9517;51.174;4.160;2023-04-07T11:12:59;10.90;;;2.77;;
18776;SDS011;9517;51.174;4.160;2023-04-07T11:15:28;16.10;;;2.80;;
18776;SDS011;9517;51.174;4.160;2023-04-07T11:18:06;12.77;;;2.70;;
18776;SDS011;9517;51.174;4.160;2023-04-07T11:20:50;10.47;;;2.80;;
18776;SDS011;9517;51.174;4.160;2023-04-07T11:23:19;13.00;;;2.90;;
18776;SDS011;9517;51.174;4.160;2023-04-07T11:25:48;12.73;;;3.27;;
18776;SDS011;9517;51.174;4.160;2023-04-07T11:28:17;11.97;;;2.50;;
18776;SDS011;9517;51.174;4.160;2023-04-07T11:30:45;14.13;;;2.43;;
18776;SDS011;9517;51.174;4.160;2023-04-07T11:33:17;11.60;;;2.37;;
18776;SDS011;9517;51.174;4.160;2023-04-07T11:35:47;13.17;;;2.50;;
18776;SDS011;9517;51.174;4.160;2023-04-07T11:38:19;11.93;;;2.20;;
18776;SDS011;9517;51.174;4.160;2023-04-07T11:40:47;14.13;;;2.50;;
18776;SDS011;9517;51.174;4.160;2023-04-07T11:43:14;12.43;;;2.50;;
18776;SDS011;9517;51.174;4.160;2023-04-07T11:45:42;13.40;;;2.73;;
18776;SDS011;9517;51.174;4.160;2023-04-07T11:50:54;15.17;;;2.70;;
18776;SDS011;9517;51.174;4.160;2023-04-07T11:53:25;13.00;;;3.00;;
18776;SDS011;9517;51.174;4.160;2023-04-07T11:56:00;18.73;;;3.13;;
18776;SDS011;9517;51.174;4.160;2023-04-07T11:58:29;17.50;;;2.70;;
18776;SDS011;9517;51.174;4.160;2023-04-07T12:00:57;10.07;;;2.13;;
18776;SDS011;9517;51.174;4.160;2023-04-07T12:03:30;12.70;;;2.47;;
18776;SDS011;9517;51.174;4.160;2023-04-07T12:05:58;10.97;;;2.40;;
18776;SDS011;9517;51.174;4.160;2023-04-07T12:08:38;9.30;;;2.30;;
18776;SDS011;9517;51.174;4.160;2023-04-07T12:11:06;10.73;;;2.67;;
18776;SDS011;9517;51.174;4.160;2023-04-07T12:13:34;12.40;;;2.83;;
18776;SDS011;9517;51.174;4.160;2023-04-07T12:16:02;15.50;;;3.00;;
18776;SDS011;9517;51.174;4.160;2023-04-07T12:18:31;10.37;;;2.40;;
18776;SDS011;9517;51.174;4.160;2023-04-07T12:20:58;15.60;;;3.63;;
18776;SDS011;9517;51.174;4.160;2023-04-07T12:23:26;17.27;;;3.93;;
18776;SDS011;9517;51.174;4.160;2023-04-07T12:25:53;14.83;;;3.00;;
18776;SDS011;9517;51.174;4.160;2023-04-07T12:28:20;15.47;;;2.87;;
18776;SDS011;9517;51.174;4.160;2023-04-07T12:30:47;12.83;;;2.60;;
18776;SDS011;9517;51.174;4.160;2023-04-07T12:33:14;16.37;;;3.30;;
18776;SDS011;9517;51.174;4.160;2023-04-07T12:35:43;9.83;;;2.57;;
18776;SDS011;9517;51.174;4.160;2023-04-07T12:38:11;12.97;;;2.60;;
18776;SDS011;9517;51.174;4.160;2023-04-07T12:40:38;12.20;;;2.30;;
18776;SDS011;9517;51.174;4.160;2023-04-07T12:43:05;14.70;;;2.70;;
18776;SDS011;9517;51.174;4.160;2023-04-07T12:45:33;9.73;;;2.20;;
18776;SDS011;9517;51.174;4.160;2023-04-07T12:48:00;13.60;;;2.20;;
18776;SDS011;9517;51.174;4.160;2023-04-07T12:50:28;12.27;;;2.47;;
18776;SDS011;9517;51.174;4.160;2023-04-07T12:52:56;8.87;;;1.97;;
18776;SDS011;9517;51.174;4.160;2023-04-07T12:55:27;9.73;;;1.60;;
18776;SDS011;9517;51.174;4.160;2023-04-07T12:57:54;7.03;;;1.67;;
18776;SDS011;9517;51.174;4.160;2023-04-07T13:00:21;8.63;;;1.60;;
18776;SDS011;9517;51.174;4.160;2023-04-07T13:02:49;6.73;;;1.53;;
18776;SDS011;9517;51.174;4.160;2023-04-07T13:05:16;6.57;;;1.50;;
18776;SDS011;9517;51.174;4.160;2023-04-07T13:07:43;6.50;;;1.60;;
18776;SDS011;9517;51.174;4.160;2023-04-07T13:10:12;7.47;;;1.40;;
18776;SDS011;9517;51.174;4.160;2023-04-07T13:12:39;10.33;;;1.37;;
18776;SDS011;9517;51.174;4.160;2023-04-07T13:15:06;9.97;;;1.50;;
18776;SDS011;9517;51.174;4.160;2023-04-07T13:17:33;4.80;;;1.30;;
18776;SDS011;9517;51.174;4.160;2023-04-07T13:20:03;4.87;;;1.20;;
18776;SDS011;9517;51.174;4.160;2023-04-07T13:22:30;10.67;;;1.70;;
18776;SDS011;9517;51.174;4.160;2023-04-07T13:24:57;8.03;;;1.80;;
18776;SDS011;9517;51.174;4.160;2023-04-07T13:27:26;6.27;;;1.30;;
18776;SDS011;9517;51.174;4.160;2023-04-07T13:29:53;7.70;;;1.70;;
18776;SDS011;9517;51.174;4.160;2023-04-07T13:32:21;9.23;;;1.70;;
18776;SDS011;9517;51.174;4.160;2023-04-07T13:34:48;8.50;;;1.60;;
18776;SDS011;9517;51.174;4.160;2023-04-07T13:37:17;7.77;;;1.50;;
18776;SDS011;9517;51.174;4.160;2023-04-07T13:39:44;7.60;;;1.40;;
18776;SDS011;9517;51.174;4.160;2023-04-07T13:42:12;5.50;;;1.40;;
18776;SDS011;9517;51.174;4.160;2023-04-07T13:44:43;7.90;;;1.83;;
18776;SDS011;9517;51.174;4.160;2023-04-07T13:47:12;7.30;;;1.60;;
18776;SDS011;9517;51.174;4.160;2023-04-07T13:49:43;15.33;;;2.30;;
18776;SDS011;9517;51.174;4.160;2023-04-07T13:52:11;6.30;;;1.40;;
18776;SDS011;9517;51.174;4.160;2023-04-07T13:54:38;8.37;;;1.70;;
18776;SDS011;9517;51.174;4.160;2023-04-07T13:57:05;5.93;;;1.30;;
18776;SDS011;9517;51.174;4.160;2023-04-07T13:59:32;10.67;;;1.90;;
18776;SDS011;9517;51.174;4.160;2023-04-07T14:02:01;10.80;;;1.70;;
18776;SDS011;9517;51.174;4.160;2023-04-07T14:04:28;10.90;;;2.07;;
18776;SDS011;9517;51.174;4.160;2023-04-07T14:06:55;9.67;;;1.77;;
18776;SDS011;9517;51.174;4.160;2023-04-07T14:09:23;12.13;;;1.73;;
18776;SDS011;9517;51.174;4.160;2023-04-07T14:11:50;8.20;;;1.47;;
18776;SDS011;9517;51.174;4.160;2023-04-07T14:14:17;11.17;;;2.00;;
18776;SDS011;9517;51.174;4.160;2023-04-07T14:16:44;7.33;;;1.87;;
18776;SDS011;9517;51.174;4.160;2023-04-07T14:19:13;10.87;;;1.83;;
18776;SDS011;9517;51.174;4.160;2023-04-07T14:21:40;11.00;;;2.17;;
18776;SDS011;9517;51.174;4.160;2023-04-07T14:24:07;8.47;;;1.80;;
18776;SDS011;9517;51.174;4.160;2023-04-07T14:26:34;6.07;;;1.60;;
18776;SDS011;9517;51.174;4.160;2023-04-07T14:29:01;8.03;;;1.60;;
18776;SDS011;9517;51.174;4.160;2023-04-07T14:31:29;7.97;;;1.33;;
18776;SDS011;9517;51.174;4.160;2023-04-07T14:33:56;10.77;;;1.77;;
18776;SDS011;9517;51.174;4.160;2023-04-07T14:36:24;13.80;;;2.33;;
18776;SDS011;9517;51.174;4.160;2023-04-07T14:38:52;10.23;;;1.40;;
18776;SDS011;9517;51.174;4.160;2023-04-07T14:41:19;6.93;;;1.37;;
18776;SDS011;9517;51.174;4.160;2023-04-07T14:43:46;8.70;;;1.60;;
18776;SDS011;9517;51.174;4.160;2023-04-07T14:46:19;11.17;;;1.70;;
18776;SDS011;9517;51.174;4.160;2023-04-07T14:48:47;10.83;;;1.67;;
18776;SDS011;9517;51.174;4.160;2023-04-07T14:51:14;10.33;;;1.50;;
18776;SDS011;9517;51.174;4.160;2023-04-07T14:53:43;12.07;;;2.10;;
18776;SDS011;9517;51.174;4.160;2023-04-07T14:56:10;12.87;;;1.90;;
18776;SDS011;9517;51.174;4.160;2023-04-07T14:58:37;8.00;;;1.60;;
18776;SDS011;9517;51.174;4.160;2023-04-07T15:01:05;11.80;;;2.23;;
18776;SDS011;9517;51.174;4.160;2023-04-07T15:03:32;10.67;;;1.70;;
18776;SDS011;9517;51.174;4.160;2023-04-07T15:06:00;10.40;;;1.83;;
18776;SDS011;9517;51.174;4.160;2023-04-07T15:08:31;9.50;;;1.80;;